Time;durP1;ratioP1;P1;durP2;ratioP2;P2;SDS_P1;SDS_P2;PMS_P1;PMS_P2;Temp;Humidity;BMP_temperature;BMP_pressure;BME280_temperature;BME280_humidity;BME280_pressure;Samples;Min_cycle;Max_cycle;Signal;HPM_P1;HPM_P2
2022/01/09 00:01:25;;;;;;;13.60;5.60;;;;;1.30;94665.00;;;;8376038;28;20254;-75
2022/01/09 00:05:28;;;;;;;11.13;5.80;;;;;1.30;94663.00;;;;8378583;28;20667;-75
2022/01/09 00:09:33;;;;;;;10.13;5.00;;;;;1.30;94652.00;;;;8382778;28;20326;-73
2022/01/09 00:13:36;;;;;;;13.53;5.07;;;;;1.30;94650.00;;;;8373414;28;20258;-73
2022/01/09 00:17:51;;;;;;;11.90;5.90;;;;;1.30;94648.00;;;;8380688;28;20734;-74
2022/01/09 00:22:07;;;;;;;13.40;5.27;;;;;1.30;94620.00;;;;8354633;28;20221;-74
2022/01/09 00:26:18;;;;;;;10.70;5.23;;;;;1.30;94615.00;;;;8377048;28;20241;-73
2022/01/09 00:30:23;;;;;;;16.03;6.30;;;;;1.30;94586.00;;;;8383706;28;20693;-74
2022/01/09 00:34:26;;;;;;;14.27;6.30;;;;;1.30;94578.00;;;;8381309;28;20265;-73
2022/01/09 00:38:29;;;;;;;19.53;6.90;;;;;1.20;94566.00;;;;8382414;28;20762;-75
2022/01/09 00:42:34;;;;;;;16.90;7.20;;;;;1.20;94564.00;;;;8383639;28;20245;-74
2022/01/09 00:46:37;;;;;;;12.80;6.27;;;;;1.20;94564.00;;;;8383042;28;20260;-73
2022/01/09 00:50:41;;;;;;;17.37;7.10;;;;;1.20;94566.00;;;;8381230;28;20268;-73
2022/01/09 00:54:44;;;;;;;14.40;7.17;;;;;1.20;94568.00;;;;8381544;28;20295;-73
2022/01/09 00:58:49;;;;;;;16.53;7.20;;;;;1.20;94557.00;;;;8382626;28;20229;-73
2022/01/09 01:02:52;;;;;;;18.27;7.83;;;;;1.20;94560.00;;;;8380390;28;20789;-73
2022/01/09 01:06:56;;;;;;;17.17;6.47;;;;;1.20;94566.00;;;;8382724;28;20300;-73
2022/01/09 01:10:59;;;;;;;24.47;10.70;;;;;1.20;94554.00;;;;8382612;28;20261;-74
2022/01/09 01:15:04;;;;;;;18.67;8.40;;;;;1.20;94558.00;;;;8384650;28;20837;-78
2022/01/09 01:19:10;;;;;;;20.97;8.97;;;;;1.20;94551.00;;;;8379508;28;20715;-75
2022/01/09 01:23:13;;;;;;;19.30;8.03;;;;;1.20;94536.00;;;;8373732;28;20265;-73
2022/01/09 01:27:18;;;;;;;19.53;8.53;;;;;1.20;94528.00;;;;8373301;28;20305;-73
2022/01/09 01:31:22;;;;;;;18.77;7.80;;;;;1.20;94529.00;;;;8377886;28;20252;-73
2022/01/09 01:35:25;;;;;;;21.57;8.53;;;;;1.20;94517.00;;;;8376197;28;20308;-76
2022/01/09 01:39:28;;;;;;;23.67;8.13;;;;;1.10;94498.00;;;;8369809;28;20256;-75
2022/01/09 01:43:32;;;;;;;21.60;7.63;;;;;1.20;94499.00;;;;8381708;28;20232;-76
2022/01/09 01:47:37;;;;;;;13.67;7.17;;;;;1.20;94478.00;;;;8376608;28;20313;-74
2022/01/09 01:51:42;;;;;;;19.60;7.57;;;;;1.10;94473.00;;;;8374618;28;20245;-73
2022/01/09 01:55:51;;;;;;;25.47;7.73;;;;;1.10;94472.00;;;;8375261;28;20226;-74
2022/01/09 01:59:56;;;;;;;19.87;7.77;;;;;1.10;94464.00;;;;8373756;28;20220;-75
2022/01/09 02:04:00;;;;;;;24.57;8.83;;;;;1.10;94458.00;;;;8364607;28;20314;-74
2022/01/09 02:08:04;;;;;;;18.47;7.47;;;;;1.10;94461.00;;;;8376757;28;20240;-75
2022/01/09 02:12:08;;;;;;;18.07;8.20;;;;;1.10;94455.00;;;;8379290;28;20310;-73
2022/01/09 02:16:16;;;;;;;17.47;7.13;;;;;1.10;94451.00;;;;8379893;28;20628;-75
2022/01/09 02:20:21;;;;;;;19.73;7.80;;;;;1.10;94441.00;;;;8380203;28;20265;-75
2022/01/09 02:24:25;;;;;;;20.53;6.97;;;;;1.10;94442.00;;;;8379351;28;20224;-75
2022/01/09 02:28:29;;;;;;;19.67;7.30;;;;;1.20;94437.00;;;;8381645;28;20248;-75
2022/01/09 02:32:32;;;;;;;20.50;7.33;;;;;1.20;94435.00;;;;8381300;28;20316;-75
2022/01/09 02:36:37;;;;;;;15.30;6.03;;;;;1.20;94442.00;;;;8380079;28;20760;-71
2022/01/09 02:40:40;;;;;;;16.67;6.90;;;;;1.20;94439.00;;;;8381808;28;20227;-75
2022/01/09 02:44:44;;;;;;;14.10;6.00;;;;;1.20;94429.00;;;;8380904;28;20267;-76
2022/01/09 02:48:47;;;;;;;14.93;5.87;;;;;1.20;94418.00;;;;8380853;28;20235;-75
2022/01/09 02:52:56;;;;;;;12.33;5.67;;;;;1.20;94399.00;;;;8377614;28;20761;-74
2022/01/09 02:56:59;;;;;;;11.70;5.60;;;;;1.20;94396.00;;;;8379563;28;20244;-77
2022/01/09 03:05:11;;;;;;;12.97;5.47;;;;;1.20;94383.00;;;;8250290;28;20261;-73
2022/01/09 03:09:16;;;;;;;13.83;5.40;;;;;1.20;94378.00;;;;8263278;28;20262;-75
2022/01/09 03:13:20;;;;;;;8.87;4.60;;;;;1.20;94386.00;;;;8275221;28;20236;-74
2022/01/09 03:17:23;;;;;;;12.73;5.40;;;;;1.30;94385.00;;;;8282247;28;20259;-75
2022/01/09 03:21:26;;;;;;;13.17;5.13;;;;;1.30;94390.00;;;;8274641;28;20231;-76
2022/01/09 03:25:31;;;;;;;12.30;4.90;;;;;1.30;94394.00;;;;8272789;28;20723;-75
2022/01/09 03:29:34;;;;;;;8.63;4.10;;;;;1.30;94395.00;;;;8276085;28;20232;-77
2022/01/09 03:33:37;;;;;;;8.20;4.07;;;;;1.30;94384.00;;;;8268878;28;20265;-77
2022/01/09 03:37:41;;;;;;;8.40;4.07;;;;;1.30;94379.00;;;;8276083;28;20737;-76
2022/01/09 03:41:46;;;;;;;7.40;3.20;;;;;1.30;94388.00;;;;8280072;28;20256;-77
2022/01/09 03:45:49;;;;;;;8.03;4.10;;;;;1.30;94385.00;;;;8280566;28;20299;-77
2022/01/09 03:49:53;;;;;;;11.03;4.00;;;;;1.30;94383.00;;;;8285919;28;20251;-74
2022/01/09 03:53:56;;;;;;;5.67;3.50;;;;;1.40;94377.00;;;;8287621;28;20648;-77
2022/01/09 03:58:00;;;;;;;6.60;3.63;;;;;1.40;94367.00;;;;8285033;28;20253;-75
2022/01/09 04:02:04;;;;;;;7.00;3.37;;;;;1.40;94356.00;;;;8290827;28;20325;-75
2022/01/09 04:06:07;;;;;;;5.77;3.57;;;;;1.30;94341.00;;;;8317989;28;20649;-76
2022/01/09 04:10:10;;;;;;;5.07;3.60;;;;;1.40;94352.00;;;;8320897;28;20253;-76
2022/01/09 04:14:16;;;;;;;8.20;3.53;;;;;1.40;94335.00;;;;8318360;28;20751;-76
2022/01/09 04:18:22;;;;;;;6.20;3.70;;;;;1.40;94329.00;;;;8314845;28;20223;-76
2022/01/09 04:22:25;;;;;;;7.67;4.00;;;;;1.40;94323.00;;;;8304160;28;20292;-77
2022/01/09 04:26:28;;;;;;;9.23;3.80;;;;;1.40;94329.00;;;;8304803;28;20230;-75
2022/01/09 04:30:33;;;;;;;8.67;4.40;;;;;1.40;94332.00;;;;8315203;28;20356;-75
2022/01/09 04:34:36;;;;;;;6.47;3.93;;;;;1.50;94325.00;;;;8312772;28;20335;-76
2022/01/09 04:38:39;;;;;;;8.13;3.90;;;;;1.50;94320.00;;;;8311786;28;20231;-77
2022/01/09 04:42:45;;;;;;;5.17;3.67;;;;;1.50;94342.00;;;;8316542;28;20252;-77
2022/01/09 04:46:55;;;;;;;7.27;3.43;;;;;1.50;94334.00;;;;8313471;28;20323;-77
2022/01/09 04:50:59;;;;;;;5.70;3.93;;;;;1.50;94325.00;;;;8304583;28;20310;-77
2022/01/09 04:55:02;;;;;;;5.57;3.73;;;;;1.50;94319.00;;;;8305126;28;20228;-77
2022/01/09 04:59:05;;;;;;;6.17;3.97;;;;;1.50;94317.00;;;;8303732;28;20310;-76
2022/01/09 05:03:12;;;;;;;6.70;3.93;;;;;1.60;94317.00;;;;8308626;28;20297;-77
2022/01/09 05:07:15;;;;;;;5.93;3.57;;;;;1.60;94328.00;;;;8308552;28;20218;-76
2022/01/09 05:11:18;;;;;;;7.33;3.90;;;;;1.60;94317.00;;;;8307922;28;20259;-76
2022/01/09 05:15:23;;;;;;;8.23;4.30;;;;;1.70;94315.00;;;;8309865;28;20341;-76
2022/01/09 05:19:31;;;;;;;9.43;4.70;;;;;1.70;94320.00;;;;8306139;28;20302;-77
2022/01/09 05:23:34;;;;;;;9.27;4.47;;;;;1.70;94314.00;;;;8317241;28;20347;-77
2022/01/09 05:27:38;;;;;;;7.03;3.83;;;;;1.80;94320.00;;;;8318076;28;20710;-77
2022/01/09 05:31:43;;;;;;;8.63;4.17;;;;;1.80;94315.00;;;;8315432;28;20335;-77
2022/01/09 05:35:48;;;;;;;8.47;4.70;;;;;1.90;94313.00;;;;8310054;28;20230;-77
2022/01/09 05:39:51;;;;;;;9.57;4.10;;;;;2.00;94324.00;;;;8312744;28;20918;-77
2022/01/09 05:43:54;;;;;;;10.70;4.57;;;;;2.00;94320.00;;;;8316367;28;20772;-76
2022/01/09 05:47:59;;;;;;;9.67;4.33;;;;;2.10;94330.00;;;;8316587;28;20227;-76
2022/01/09 05:52:05;;;;;;;10.17;4.80;;;;;2.10;94326.00;;;;8316553;28;20268;-76
2022/01/09 05:56:08;;;;;;;7.50;4.33;;;;;2.20;94331.00;;;;8315779;28;20257;-77
2022/01/09 06:00:12;;;;;;;10.73;5.10;;;;;2.20;94330.00;;;;8316832;28;20261;-76
2022/01/09 06:04:15;;;;;;;8.97;4.03;;;;;2.20;94323.00;;;;8315511;28;20682;-78
2022/01/09 06:08:20;;;;;;;7.57;4.27;;;;;2.30;94321.00;;;;8316713;28;20215;-76
2022/01/09 06:12:23;;;;;;;10.50;4.60;;;;;2.30;94325.00;;;;8316272;28;20326;-77
2022/01/09 06:16:26;;;;;;;9.67;4.80;;;;;2.30;94324.00;;;;8316588;28;20597;-75
2022/01/09 06:20:30;;;;;;;10.70;4.73;;;;;2.40;94323.00;;;;8317501;28;20891;-75
2022/01/09 06:24:34;;;;;;;7.90;4.50;;;;;2.40;94317.00;;;;8316601;28;20240;-76
2022/01/09 06:28:37;;;;;;;7.73;4.50;;;;;2.40;94313.00;;;;8315731;28;20268;-76
2022/01/09 06:32:40;;;;;;;11.43;4.70;;;;;2.40;94319.00;;;;8316045;28;20250;-76
2022/01/09 06:36:44;;;;;;;12.50;4.87;;;;;2.40;94325.00;;;;8315939;28;20232;-75
2022/01/09 06:40:48;;;;;;;8.70;4.37;;;;;2.50;94333.00;;;;8316191;28;20315;-76
2022/01/09 06:44:51;;;;;;;23.87;5.30;;;;;2.50;94332.00;;;;8313703;28;20257;-77
2022/01/09 06:48:54;;;;;;;12.10;5.33;;;;;2.50;94328.00;;;;8312891;28;20696;-77
2022/01/09 06:52:58;;;;;;;13.20;5.20;;;;;2.50;94328.00;;;;8313043;28;20324;-76
2022/01/09 06:57:03;;;;;;;12.03;5.40;;;;;2.50;94336.00;;;;8315400;28;20267;-75
2022/01/09 07:01:07;;;;;;;11.97;5.20;;;;;2.50;94345.00;;;;8314848;28;20263;-76
2022/01/09 07:05:11;;;;;;;13.37;6.37;;;;;2.50;94343.00;;;;8310416;28;20306;-76
2022/01/09 07:09:14;;;;;;;11.63;5.20;;;;;2.60;94351.00;;;;8309562;28;20320;-77
2022/01/09 07:13:19;;;;;;;14.17;5.73;;;;;2.60;94358.00;;;;8303109;28;20788;-76
2022/01/09 07:17:22;;;;;;;13.23;5.43;;;;;2.60;94364.00;;;;8301081;28;20251;-77
2022/01/09 07:21:26;;;;;;;11.70;5.23;;;;;2.70;94367.00;;;;8300191;28;20456;-76
2022/01/09 07:25:29;;;;;;;16.23;5.67;;;;;2.70;94376.00;;;;8310063;28;20780;-78
2022/01/09 07:29:34;;;;;;;15.97;5.30;;;;;2.70;94379.00;;;;8307255;28;20254;-77
2022/01/09 07:33:37;;;;;;;14.70;5.83;;;;;2.70;94378.00;;;;8309280;28;20263;-77
2022/01/09 07:37:41;;;;;;;13.70;5.60;;;;;2.70;94390.00;;;;8304146;28;20224;-77
2022/01/09 07:41:45;;;;;;;14.30;5.63;;;;;2.80;94408.00;;;;8307487;28;20711;-77
2022/01/09 07:45:49;;;;;;;11.37;5.37;;;;;2.80;94398.00;;;;8311260;28;20324;-74
2022/01/09 07:49:52;;;;;;;6.73;3.30;;;;;2.80;94406.00;;;;8303658;28;20315;-77
2022/01/09 07:53:56;;;;;;;2.50;2.30;;;;;2.90;94411.00;;;;8306985;28;20241;-76
2022/01/09 07:57:59;;;;;;;1.60;1.50;;;;;3.00;94413.00;;;;8302697;28;20229;-79
2022/01/09 08:02:04;;;;;;;1.33;1.23;;;;;3.00;94426.00;;;;8308828;28;20301;-77
2022/01/09 08:06:07;;;;;;;1.47;1.40;;;;;3.10;94446.00;;;;8312869;28;21673;-80
2022/01/09 08:10:12;;;;;;;1.40;1.30;;;;;3.10;94461.00;;;;8303654;28;20583;-83
2022/01/09 08:14:18;;;;;;;1.30;1.20;;;;;3.20;94468.00;;;;8312377;28;20947;-83
2022/01/09 08:18:23;;;;;;;1.40;1.30;;;;;3.20;94477.00;;;;8307682;28;20852;-80
2022/01/09 08:22:29;;;;;;;0.90;0.90;;;;;3.30;94476.00;;;;8306173;28;20245;-80
2022/01/09 08:26:32;;;;;;;2.27;1.50;;;;;3.40;94492.00;;;;8308510;28;20378;-79
2022/01/09 08:30:36;;;;;;;2.33;1.57;;;;;3.40;94493.00;;;;8309903;28;20276;-79
2022/01/09 08:34:40;;;;;;;2.10;1.27;;;;;3.50;94491.00;;;;8306692;28;20345;-79
2022/01/09 08:38:44;;;;;;;3.10;1.83;;;;;3.50;94517.00;;;;8300037;28;20225;-78
2022/01/09 08:42:48;;;;;;;1.63;1.00;;;;;3.60;94523.00;;;;8305283;28;20382;-79
2022/01/09 08:46:52;;;;;;;3.00;1.57;;;;;3.70;94538.00;;;;8308337;28;20685;-79
2022/01/09 08:50:56;;;;;;;1.70;1.10;;;;;3.80;94541.00;;;;8318349;28;20275;-77
2022/01/09 08:55:00;;;;;;;1.53;1.00;;;;;3.70;94564.00;;;;8316919;28;20242;-77
2022/01/09 08:59:03;;;;;;;0.80;0.80;;;;;3.80;94578.00;;;;8318695;28;20252;-73
2022/01/09 09:03:18;;;;;;;0.60;0.60;;;;;3.80;94583.00;;;;8307301;28;20513;-74
2022/01/09 09:07:24;;;;;;;1.23;1.13;;;;;3.80;94597.00;;;;8313345;28;26518;-75
2022/01/09 09:11:27;;;;;;;0.77;0.77;;;;;3.80;94605.00;;;;8313538;28;20610;-75
2022/01/09 09:15:31;;;;;;;0.70;0.70;;;;;3.80;94606.00;;;;8306119;28;20305;-73
2022/01/09 09:19:34;;;;;;;0.47;0.47;;;;;3.80;94613.00;;;;8312243;28;20666;-74
2022/01/09 09:23:38;;;;;;;1.10;1.00;;;;;3.80;94619.00;;;;8310111;28;20312;-74
2022/01/09 09:27:42;;;;;;;1.23;0.80;;;;;3.90;94626.00;;;;8311045;28;20252;-73
2022/01/09 09:31:45;;;;;;;1.00;1.00;;;;;3.90;94626.00;;;;8295223;28;20249;-73
2022/01/09 09:35:48;;;;;;;1.17;0.70;;;;;3.90;94649.00;;;;8305696;28;20267;-73
2022/01/09 09:39:53;;;;;;;4.97;4.00;;;;;4.00;94643.00;;;;8298706;28;20842;-74
2022/01/09 09:43:56;;;;;;;2.40;2.30;;;;;4.00;94653.00;;;;8309004;28;20270;-74
2022/01/09 09:48:00;;;;;;;1.53;1.53;;;;;4.00;94671.00;;;;8304657;28;20943;-76
2022/01/09 09:52:06;;;;;;;121.57;52.87;;;;;4.00;94673.00;;;;8310196;28;20308;-72
2022/01/09 09:56:10;;;;;;;93.10;41.93;;;;;4.00;94688.00;;;;8309875;28;21014;-72
2022/01/09 10:00:16;;;;;;;75.00;38.43;;;;;4.00;94689.00;;;;8305858;28;20347;-72
2022/01/09 10:04:19;;;;;;;73.73;37.33;;;;;4.00;94690.00;;;;8303264;28;20258;-74
2022/01/09 10:08:34;;;;;;;105.70;48.87;;;;;4.10;94695.00;;;;8300183;28;20282;-75
2022/01/09 10:12:39;;;;;;;639.77;293.83;;;;;4.10;94694.00;;;;8300341;28;20239;-75
2022/01/09 10:16:51;;;;;;;277.47;127.90;;;;;4.20;94706.00;;;;8300450;28;20662;-75
2022/01/09 10:21:06;;;;;;;97.20;44.70;;;;;4.20;94704.00;;;;8310276;28;20225;-74
2022/01/09 10:25:27;;;;;;;527.13;214.00;;;;;4.20;94716.00;;;;8309768;28;20263;-72
2022/01/09 10:29:33;;;;;;;200.30;76.80;;;;;4.30;94718.00;;;;8297741;28;20227;-75
2022/01/09 10:33:38;;;;;;;278.83;101.73;;;;;4.40;94723.00;;;;8305811;28;20357;-73
2022/01/09 10:37:43;;;;;;;144.23;55.57;;;;;4.30;94717.00;;;;8309504;28;20324;-73
2022/01/09 10:41:48;;;;;;;209.27;77.07;;;;;4.30;94724.00;;;;8302375;28;20256;-73
2022/01/09 10:45:59;;;;;;;107.33;49.70;;;;;4.30;94723.00;;;;8305650;28;21052;-74
2022/01/09 10:50:02;;;;;;;8.27;5.40;;;;;4.20;94733.00;;;;8297512;28;20622;-72
2022/01/09 10:54:07;;;;;;;21.03;14.33;;;;;4.30;94733.00;;;;8304837;28;20233;-72
2022/01/09 10:58:22;;;;;;;3.53;3.00;;;;;4.40;94732.00;;;;8305331;28;20312;-72
2022/01/09 11:02:26;;;;;;;3.30;3.07;;;;;4.50;94738.00;;;;8303905;28;20236;-71
2022/01/09 11:06:32;;;;;;;1.73;1.40;;;;;4.50;94745.00;;;;8309878;28;20232;-73
2022/01/09 11:10:36;;;;;;;3.30;1.47;;;;;4.60;94738.00;;;;8309283;28;20733;-76
2022/01/09 11:14:41;;;;;;;2.73;1.47;;;;;4.70;94748.00;;;;8304726;28;20273;-75
2022/01/09 11:18:46;;;;;;;2.20;2.10;;;;;4.70;94747.00;;;;8304641;28;20643;-75
2022/01/09 11:22:51;;;;;;;5.83;2.97;;;;;4.70;94748.00;;;;8301769;28;20401;-76
2022/01/09 11:27:01;;;;;;;2.03;1.83;;;;;4.70;94740.00;;;;8310658;28;20235;-75
2022/01/09 11:31:12;;;;;;;2.27;0.90;;;;;4.60;94746.00;;;;8306209;28;20346;-75
2022/01/09 11:35:24;;;;;;;3.03;1.10;;;;;4.50;94741.00;;;;8303278;28;20255;-76
2022/01/09 11:39:35;;;;;;;1.13;1.07;;;;;4.40;94762.00;;;;8309338;28;20715;-74
2022/01/09 11:43:52;;;;;;;2.17;1.07;;;;;4.30;94750.00;;;;8306048;28;20286;-72
2022/01/09 11:47:55;;;;;;;3.73;1.20;;;;;4.30;94760.00;;;;8306067;28;20551;-73
2022/01/09 11:52:00;;;;;;;8.27;1.57;;;;;4.20;94768.00;;;;8303025;28;20356;-73
2022/01/09 11:56:04;;;;;;;7.67;1.57;;;;;4.20;94763.00;;;;8311593;28;20667;-73
2022/01/09 12:00:09;;;;;;;1.80;1.10;;;;;4.20;94747.00;;;;8311370;28;20312;-74
2022/01/09 12:05:06;;;;;;;8.43;1.70;;;;;4.20;94778.00;;;;8308980;28;20241;-72
2022/01/09 12:09:11;;;;;;;246.53;135.93;;;;;4.30;94784.00;;;;8298907;28;20224;-72
2022/01/09 12:13:51;;;;;;;234.87;137.23;;;;;4.40;94783.00;;;;8307702;28;20248;-73
2022/01/09 12:17:58;;;;;;;8.57;2.77;;;;;4.50;94800.00;;;;8306506;28;20968;-73
2022/01/09 12:22:01;;;;;;;5.40;1.90;;;;;4.60;94807.00;;;;8301721;28;20594;-73
2022/01/09 12:26:06;;;;;;;10.97;1.97;;;;;4.80;94807.00;;;;8315667;28;20253;-74
2022/01/09 12:30:10;;;;;;;4.77;1.83;;;;;4.60;94808.00;;;;8302275;28;20970;-75
2022/01/09 12:34:13;;;;;;;11.00;1.80;;;;;4.60;94816.00;;;;8305657;28;20241;-74
2022/01/09 12:38:18;;;;;;;9.47;2.47;;;;;4.60;94812.00;;;;8314037;28;20809;-74
2022/01/09 12:42:23;;;;;;;11.07;2.03;;;;;4.60;94813.00;;;;8303523;28;20245;-73
2022/01/09 12:46:26;;;;;;;13.63;3.33;;;;;4.60;94820.00;;;;8303872;28;20323;-73
2022/01/09 12:50:32;;;;;;;15.43;4.40;;;;;4.70;94827.00;;;;8304099;28;20304;-73
2022/01/09 12:54:35;;;;;;;8.67;3.83;;;;;4.70;94820.00;;;;8307797;28;20233;-73
2022/01/09 12:58:41;;;;;;;12.67;2.83;;;;;4.70;94821.00;;;;8307492;28;20319;-73
2022/01/09 13:02:52;;;;;;;9.90;1.63;;;;;4.60;94828.00;;;;8310327;28;20320;-73
2022/01/09 13:06:58;;;;;;;3.73;1.60;;;;;4.50;94833.00;;;;8302618;28;20236;-73
2022/01/09 13:11:03;;;;;;;9.77;1.90;;;;;4.50;94836.00;;;;8305157;28;20225;-74
2022/01/09 13:15:08;;;;;;;5.60;1.80;;;;;4.50;94845.00;;;;8299823;28;20722;-77
2022/01/09 13:19:15;;;;;;;16.03;2.03;;;;;4.60;94844.00;;;;8307816;28;20327;-76
2022/01/09 13:23:51;;;;;;;9.83;1.67;;;;;4.70;94861.00;;;;8307306;28;20240;-75
2022/01/09 13:27:54;;;;;;;8.33;1.53;;;;;4.80;94865.00;;;;8310884;28;21008;-75
2022/01/09 13:32:02;;;;;;;10.00;2.20;;;;;5.00;94858.00;;;;8308435;28;20232;-75
2022/01/09 13:36:06;;;;;;;11.70;1.83;;;;;5.10;94879.00;;;;8313952;28;20233;-74
2022/01/09 13:40:10;;;;;;;9.37;2.03;;;;;5.30;94880.00;;;;8313142;28;20295;-74
2022/01/09 13:44:14;;;;;;;10.70;1.90;;;;;5.30;94892.00;;;;8305849;28;20229;-75
2022/01/09 13:48:19;;;;;;;8.83;1.70;;;;;5.40;94902.00;;;;8302941;28;20225;-74
2022/01/09 13:52:35;;;;;;;13.60;2.00;;;;;5.50;94921.00;;;;8310494;28;20247;-74
2022/01/09 13:56:40;;;;;;;9.63;1.83;;;;;5.50;94917.00;;;;8313285;28;20352;-74
2022/01/09 14:00:44;;;;;;;7.10;1.67;;;;;5.50;94918.00;;;;8302517;28;20270;-74
2022/01/09 14:05:11;;;;;;;4.23;1.97;;;;;5.40;94927.00;;;;8309621;28;20229;-74
2022/01/09 14:09:25;;;;;;;9.23;1.77;;;;;5.30;94940.00;;;;8308148;28;20335;-73
2022/01/09 14:13:37;;;;;;;9.10;1.93;;;;;5.30;94935.00;;;;8302864;28;20317;-73
2022/01/09 14:17:45;;;;;;;11.67;1.97;;;;;5.30;94949.00;;;;8303246;28;20431;-71
2022/01/09 14:21:54;;;;;;;9.60;2.00;;;;;5.20;94942.00;;;;8307770;28;20312;-71
2022/01/09 14:26:06;;;;;;;8.23;1.90;;;;;5.00;94951.00;;;;8302720;28;20241;-71
2022/01/09 14:30:21;;;;;;;8.27;1.67;;;;;4.90;94950.00;;;;8301887;28;20226;-72
2022/01/09 14:34:24;;;;;;;6.53;1.63;;;;;4.80;94960.00;;;;8305754;28;20571;-72
2022/01/09 14:38:30;;;;;;;10.53;1.67;;;;;4.60;94961.00;;;;8305102;28;21639;-72
2022/01/09 14:42:33;;;;;;;9.07;1.97;;;;;4.60;94968.00;;;;8303413;28;20645;-71
2022/01/09 14:46:38;;;;;;;14.97;2.03;;;;;4.50;94975.00;;;;8301327;28;20344;-72
2022/01/09 14:50:44;;;;;;;11.50;2.57;;;;;4.50;94980.00;;;;8305870;28;20659;-72
2022/01/09 14:54:49;;;;;;;10.53;2.10;;;;;4.50;94979.00;;;;8316584;28;20272;-72
2022/01/09 14:58:52;;;;;;;9.93;1.60;;;;;4.40;94987.00;;;;8306423;28;20245;-72
2022/01/09 15:02:57;;;;;;;7.60;1.83;;;;;4.30;94981.00;;;;8308040;28;20266;-73
2022/01/09 15:07:01;;;;;;;9.23;1.50;;;;;4.20;94985.00;;;;8309452;28;20290;-72
2022/01/09 15:11:07;;;;;;;11.27;1.97;;;;;4.10;94990.00;;;;8308997;28;20312;-73
2022/01/09 15:15:11;;;;;;;7.07;2.13;;;;;4.10;94994.00;;;;8310380;28;20282;-73
2022/01/09 15:19:15;;;;;;;7.80;1.90;;;;;4.10;94999.00;;;;8311128;28;20243;-73
2022/01/09 15:23:19;;;;;;;9.77;2.07;;;;;4.10;95007.00;;;;8302511;28;20217;-73
2022/01/09 15:27:27;;;;;;;11.17;2.33;;;;;4.00;95008.00;;;;8308208;28;20683;-73
2022/01/09 15:31:30;;;;;;;5.03;1.60;;;;;4.00;95012.00;;;;8298900;28;20244;-73
2022/01/09 15:35:33;;;;;;;8.03;2.20;;;;;4.00;95014.00;;;;8307905;28;20259;-73
2022/01/09 15:39:37;;;;;;;12.10;2.20;;;;;4.00;95021.00;;;;8302916;28;20761;-72
2022/01/09 15:43:41;;;;;;;13.13;2.40;;;;;3.90;95030.00;;;;8310169;28;20722;-73
2022/01/09 15:47:46;;;;;;;5.33;2.20;;;;;3.90;95038.00;;;;8310524;28;20775;-72
2022/01/09 15:51:49;;;;;;;10.00;2.80;;;;;3.90;95040.00;;;;8315843;28;20311;-72
2022/01/09 15:55:52;;;;;;;11.30;3.27;;;;;3.90;95045.00;;;;8310590;28;21086;-72
2022/01/09 15:59:58;;;;;;;12.43;3.20;;;;;3.90;95059.00;;;;8309542;28;20248;-72
2022/01/09 16:04:01;;;;;;;32.60;13.40;;;;;3.90;95057.00;;;;8314100;28;20344;-70
2022/01/09 16:08:05;;;;;;;11.63;2.47;;;;;3.90;95058.00;;;;8305300;28;20233;-71
2022/01/09 16:12:11;;;;;;;10.57;2.67;;;;;3.90;95067.00;;;;8302672;28;20627;-71
2022/01/09 16:16:15;;;;;;;7.77;2.07;;;;;3.90;95070.00;;;;8306787;28;20235;-71
2022/01/09 16:20:23;;;;;;;6.30;2.00;;;;;3.90;95063.00;;;;8310022;28;20312;-70
2022/01/09 16:24:26;;;;;;;8.33;2.37;;;;;3.80;95064.00;;;;8295770;28;20276;-71
2022/01/09 16:28:30;;;;;;;11.33;2.37;;;;;3.70;95069.00;;;;8306859;28;20320;-71
2022/01/09 16:32:34;;;;;;;10.80;2.30;;;;;3.60;95074.00;;;;8308422;28;20221;-71
2022/01/09 16:36:38;;;;;;;12.17;2.57;;;;;3.40;95066.00;;;;8311724;28;20332;-71
2022/01/09 16:40:41;;;;;;;16.77;4.30;;;;;3.30;95076.00;;;;8314818;28;20259;-70
2022/01/09 16:44:45;;;;;;;70.63;22.93;;;;;3.20;95083.00;;;;8304390;28;20722;-70
2022/01/09 16:48:50;;;;;;;8.17;3.00;;;;;3.00;95081.00;;;;8309741;28;20229;-70
2022/01/09 16:52:53;;;;;;;12.17;2.53;;;;;3.00;95090.00;;;;8302844;28;20255;-70
2022/01/09 16:56:56;;;;;;;12.13;2.77;;;;;2.90;95099.00;;;;8305995;28;20310;-70
2022/01/09 17:01:00;;;;;;;9.50;2.40;;;;;2.80;95101.00;;;;8306932;28;20226;-69
2022/01/09 17:05:05;;;;;;;7.30;2.70;;;;;2.80;95106.00;;;;8306845;28;20633;-71
2022/01/09 17:09:09;;;;;;;8.97;2.60;;;;;2.70;95109.00;;;;8311371;28;20251;-74
2022/01/09 17:13:12;;;;;;;10.53;2.63;;;;;2.70;95117.00;;;;8301271;28;20332;-70
2022/01/09 17:17:21;;;;;;;6.27;2.20;;;;;2.80;95118.00;;;;8311283;28;20248;-70
2022/01/09 17:21:25;;;;;;;7.67;2.67;;;;;2.90;95128.00;;;;8307839;28;20227;-71
2022/01/09 17:25:29;;;;;;;6.07;2.30;;;;;3.00;95128.00;;;;8303730;28;20232;-71
2022/01/09 17:29:32;;;;;;;7.90;2.70;;;;;3.10;95134.00;;;;8307699;28;20327;-72
2022/01/09 17:33:41;;;;;;;10.10;2.43;;;;;3.10;95128.00;;;;8311335;28;20316;-71
2022/01/09 17:37:46;;;;;;;5.70;2.23;;;;;3.20;95147.00;;;;8304898;28;20236;-69
2022/01/09 17:41:49;;;;;;;6.33;2.27;;;;;3.30;95135.00;;;;8307269;28;20311;-72
2022/01/09 17:45:53;;;;;;;11.43;4.30;;;;;3.30;95141.00;;;;8301781;28;20576;-70
2022/01/09 17:49:56;;;;;;;18.13;7.93;;;;;3.30;95146.00;;;;8301247;28;20328;-73
2022/01/09 17:54:01;;;;;;;24.33;10.47;;;;;3.20;95149.00;;;;8315833;28;20232;-73
2022/01/09 17:58:04;;;;;;;21.37;8.93;;;;;3.20;95153.00;;;;8316290;28;20231;-73
2022/01/09 18:02:07;;;;;;;9.10;4.17;;;;;3.20;95154.00;;;;8305328;28;20267;-71
2022/01/09 18:06:12;;;;;;;9.97;4.40;;;;;3.10;95160.00;;;;8300863;28;20366;-73
2022/01/09 18:10:16;;;;;;;6.23;4.00;;;;;3.00;95159.00;;;;8307671;28;20332;-71
2022/01/09 18:14:20;;;;;;;13.17;2.93;;;;;2.90;95165.00;;;;8301939;28;20252;-71
2022/01/09 18:18:23;;;;;;;9.03;2.97;;;;;2.70;95172.00;;;;8307137;28;20319;-71
2022/01/09 18:22:26;;;;;;;4.77;2.20;;;;;2.60;95179.00;;;;8300471;28;20834;-71
2022/01/09 18:26:31;;;;;;;8.10;2.73;;;;;2.60;95180.00;;;;8304255;28;20274;-72
2022/01/09 18:30:34;;;;;;;4.90;2.23;;;;;2.50;95181.00;;;;8306572;28;20727;-72
2022/01/09 18:34:37;;;;;;;7.57;2.30;;;;;2.40;95185.00;;;;8307596;28;20269;-72
2022/01/09 18:38:41;;;;;;;11.57;3.10;;;;;2.30;95186.00;;;;8306030;28;20317;-72
2022/01/09 18:42:46;;;;;;;7.73;2.50;;;;;2.30;95190.00;;;;8307654;28;20680;-72
2022/01/09 18:46:49;;;;;;;9.80;2.07;;;;;2.20;95205.00;;;;8303359;28;20332;-72
2022/01/09 18:50:53;;;;;;;5.17;2.37;;;;;2.10;95204.00;;;;8306062;28;20335;-72
2022/01/09 18:54:56;;;;;;;10.77;2.20;;;;;1.90;95202.00;;;;8300215;28;20226;-72
2022/01/09 18:59:01;;;;;;;5.23;2.00;;;;;1.90;95204.00;;;;8301331;28;20272;-72
2022/01/09 19:03:04;;;;;;;7.50;2.83;;;;;1.80;95212.00;;;;8304787;28;20374;-72
2022/01/09 19:07:08;;;;;;;6.87;3.93;;;;;1.70;95223.00;;;;8305493;28;20572;-72
2022/01/09 19:11:13;;;;;;;7.40;4.30;;;;;1.70;95227.00;;;;8306524;28;20339;-72
2022/01/09 19:15:18;;;;;;;11.93;2.63;;;;;1.60;95233.00;;;;8297319;28;20246;-71
2022/01/09 19:19:22;;;;;;;11.40;4.60;;;;;1.60;95243.00;;;;8308236;28;20314;-72
2022/01/09 19:23:25;;;;;;;11.20;3.60;;;;;1.50;95251.00;;;;8312192;28;20264;-72
2022/01/09 19:27:35;;;;;;;9.50;7.43;;;;;1.50;95242.00;;;;8311392;28;21171;-72
2022/01/09 19:31:39;;;;;;;7.23;3.57;;;;;1.40;95262.00;;;;8307038;28;20232;-72
2022/01/09 19:35:44;;;;;;;9.53;3.60;;;;;1.10;95258.00;;;;8305787;28;20320;-73
2022/01/09 19:39:48;;;;;;;13.00;4.20;;;;;1.00;95277.00;;;;8306174;28;20308;-73
2022/01/09 19:43:51;;;;;;;19.33;4.93;;;;;0.90;95278.00;;;;8308897;28;20893;-73
2022/01/09 19:47:55;;;;;;;9.17;4.30;;;;;0.90;95297.00;;;;8303996;28;20227;-72
2022/01/09 19:52:02;;;;;;;10.63;5.20;;;;;1.10;95297.00;;;;8304382;28;20244;-72
2022/01/09 19:56:06;;;;;;;12.67;4.73;;;;;1.30;95294.00;;;;8312919;28;21018;-72
2022/01/09 20:00:10;;;;;;;9.93;4.33;;;;;1.50;95300.00;;;;8309809;28;20251;-72
2022/01/09 20:04:15;;;;;;;14.07;8.37;;;;;1.70;95313.00;;;;8309546;28;20235;-73
2022/01/09 20:08:19;;;;;;;11.00;4.20;;;;;1.80;95324.00;;;;8312023;28;21611;-73
2022/01/09 20:12:22;;;;;;;16.73;5.73;;;;;1.90;95330.00;;;;8302136;28;20254;-73
2022/01/09 20:16:25;;;;;;;12.03;4.60;;;;;2.00;95329.00;;;;8303335;28;20306;-72
2022/01/09 20:20:30;;;;;;;9.33;4.53;;;;;2.10;95329.00;;;;8308373;28;20321;-73
2022/01/09 20:24:34;;;;;;;9.30;5.20;;;;;2.20;95341.00;;;;8309309;28;21035;-72
2022/01/09 20:28:38;;;;;;;11.60;4.87;;;;;2.20;95334.00;;;;8305037;28;20239;-72
2022/01/09 20:32:41;;;;;;;12.47;4.60;;;;;2.20;95342.00;;;;8307282;28;20326;-72
2022/01/09 20:36:47;;;;;;;9.37;4.20;;;;;2.30;95350.00;;;;8317756;28;20230;-72